Time;durP1;ratioP1;P1;durP2;ratioP2;P2;SDS_P1;SDS_P2;PMS_P1;PMS_P2;Temp;Humidity;BMP_temperature;BMP_pressure;BME280_temperature;BME280_humidity;BME280_pressure;Samples;Min_cycle;Max_cycle;Signal;HPM_P1;HPM_P2
2019/07/31 00:00:25;;;;;;;14.2;12.9;;;;;;;19.34;100;95105.9;;;;
2019/07/31 00:01:47;;;;;;;14.2;12.9;;;;;;;19.34;100;95105.9;;;;
2019/07/31 00:02:48;;;;;;;14.2;12.9;;;;;;;19.34;100;95105.9;;;;
2019/07/31 00:03:50;;;;;;;14.2;12.9;;;;;;;19.34;100;95105.9;;;;
2019/07/31 00:04:51;;;;;;;14.2;12.9;;;;;;;19.34;100;95105.9;;;;
2019/07/31 00:05:52;;;;;;;14.2;12.9;;;;;;;19.34;100;95105.9;;;;
2019/07/31 00:06:53;;;;;;;14.2;12.9;;;;;;;19.34;100;95105.9;;;;
2019/07/31 00:07:54;;;;;;;15.6;14.05;;;;;;;19.34;100;95120;;;;
2019/07/31 00:08:55;;;;;;;15.6;14.05;;;;;;;19.34;100;95120;;;;
2019/07/31 00:09:56;;;;;;;15.6;14.05;;;;;;;19.34;100;95120;;;;
2019/07/31 00:10:58;;;;;;;15.6;14.05;;;;;;;19.34;100;95120;;;;
2019/07/31 00:11:59;;;;;;;15.6;14.05;;;;;;;19.34;100;95120;;;;
2019/07/31 00:13:00;;;;;;;15.6;14.05;;;;;;;19.34;100;95120;;;;
2019/07/31 00:14:01;;;;;;;15.6;14.05;;;;;;;19.34;100;95120;;;;
2019/07/31 00:15:03;;;;;;;15.6;14.05;;;;;;;19.34;100;95120;;;;
2019/07/31 00:16:04;;;;;;;15.6;14.05;;;;;;;19.34;100;95120;;;;
2019/07/31 00:17:06;;;;;;;15.6;14.05;;;;;;;19.34;100;95120;;;;
2019/07/31 00:18:07;;;;;;;15.6;14.05;;;;;;;19.34;100;95120;;;;
2019/07/31 00:19:08;;;;;;;15.55;14.25;;;;;;;19.25;100;95133.64;;;;
2019/07/31 00:20:09;;;;;;;15.55;14.25;;;;;;;19.25;100;95133.64;;;;
2019/07/31 00:21:11;;;;;;;15.55;14.25;;;;;;;19.25;100;95133.64;;;;
2019/07/31 00:22:12;;;;;;;15.55;14.25;;;;;;;19.25;100;95133.64;;;;
2019/07/31 00:23:13;;;;;;;15.55;14.25;;;;;;;19.25;100;95133.64;;;;
2019/07/31 00:24:14;;;;;;;15.55;14.25;;;;;;;19.25;100;95133.64;;;;
2019/07/31 00:25:15;;;;;;;15.55;14.25;;;;;;;19.25;100;95133.64;;;;
2019/07/31 00:26:16;;;;;;;15.55;14.25;;;;;;;19.25;100;95133.64;;;;
2019/07/31 00:27:17;;;;;;;15.55;14.25;;;;;;;19.25;100;95133.64;;;;
2019/07/31 00:28:18;;;;;;;15.55;14.25;;;;;;;19.25;100;95133.64;;;;
2019/07/31 00:29:19;;;;;;;17.15;15.45;;;;;;;19.17;100;95138.83;;;;
2019/07/31 00:30:21;;;;;;;17.15;15.45;;;;;;;19.17;100;95138.83;;;;
2019/07/31 00:31:48;;;;;;;17.15;15.45;;;;;;;19.17;100;95138.83;;;;
2019/07/31 00:32:50;;;;;;;17.15;15.45;;;;;;;19.17;100;95138.83;;;;
2019/07/31 00:33:51;;;;;;;17.15;15.45;;;;;;;19.17;100;95138.83;;;;
2019/07/31 00:34:52;;;;;;;17.15;15.45;;;;;;;19.17;100;95138.83;;;;
2019/07/31 00:35:53;;;;;;;17.15;15.45;;;;;;;19.17;100;95138.83;;;;
2019/07/31 00:36:54;;;;;;;17.15;15.45;;;;;;;19.17;100;95138.83;;;;
2019/07/31 00:37:55;;;;;;;17.15;15.45;;;;;;;19.17;100;95138.83;;;;
2019/07/31 00:38:56;;;;;;;17.15;15.45;;;;;;;19.17;100;95138.83;;;;
2019/07/31 00:39:57;;;;;;;16.25;14.65;;;;;;;19.02;100;95194.14;;;;
2019/07/31 00:40:58;;;;;;;16.25;14.65;;;;;;;19.02;100;95194.14;;;;
2019/07/31 00:42:00;;;;;;;16.25;14.65;;;;;;;19.02;100;95194.14;;;;
2019/07/31 00:43:01;;;;;;;16.25;14.65;;;;;;;19.02;100;95194.14;;;;
2019/07/31 00:44:02;;;;;;;16.25;14.65;;;;;;;19.02;100;95194.14;;;;
2019/07/31 00:45:04;;;;;;;16.25;14.65;;;;;;;19.02;100;95194.14;;;;
2019/07/31 00:46:05;;;;;;;16.25;14.65;;;;;;;19.02;100;95194.14;;;;
2019/07/31 00:47:06;;;;;;;16.25;14.65;;;;;;;19.02;100;95194.14;;;;
2019/07/31 00:48:08;;;;;;;16.25;14.65;;;;;;;19.02;100;95194.14;;;;
2019/07/31 00:49:10;;;;;;;16.25;14.65;;;;;;;19.02;100;95194.14;;;;
2019/07/31 00:50:11;;;;;;;12.8;11.65;;;;;;;18.9;100;95197.97;;;;
2019/07/31 00:51:26;;;;;;;12.8;11.65;;;;;;;18.9;100;95197.97;;;;
2019/07/31 00:52:27;;;;;;;12.8;11.65;;;;;;;18.9;100;95197.97;;;;
2019/07/31 00:53:28;;;;;;;12.8;11.65;;;;;;;18.9;100;95197.97;;;;
2019/07/31 00:54:30;;;;;;;12.8;11.65;;;;;;;18.9;100;95197.97;;;;
2019/07/31 00:55:31;;;;;;;12.8;11.65;;;;;;;18.9;100;95197.97;;;;
2019/07/31 00:56:32;;;;;;;12.8;11.65;;;;;;;18.9;100;95197.97;;;;
2019/07/31 00:57:33;;;;;;;12.8;11.65;;;;;;;18.9;100;95197.97;;;;
2019/07/31 00:58:34;;;;;;;12.8;11.65;;;;;;;18.9;100;95197.97;;;;
2019/07/31 00:59:36;;;;;;;12.8;11.65;;;;;;;18.9;100;95197.97;;;;
2019/07/31 01:00:37;;;;;;;12.8;11.65;;;;;;;18.9;100;95197.97;;;;
2019/07/31 01:01:41;;;;;;;15.8;14.3;;;;;;;18.68;100;95219.39;;;;
2019/07/31 01:02:42;;;;;;;15.8;14.3;;;;;;;18.68;100;95219.39;;;;
2019/07/31 01:03:43;;;;;;;15.8;14.3;;;;;;;18.68;100;95219.39;;;;
2019/07/31 01:04:44;;;;;;;15.8;14.3;;;;;;;18.68;100;95219.39;;;;
2019/07/31 01:05:45;;;;;;;15.8;14.3;;;;;;;18.68;100;95219.39;;;;
2019/07/31 01:06:47;;;;;;;15.8;14.3;;;;;;;18.68;100;95219.39;;;;
2019/07/31 01:07:48;;;;;;;15.8;14.3;;;;;;;18.68;100;95219.39;;;;
2019/07/31 01:08:49;;;;;;;15.8;14.3;;;;;;;18.68;100;95219.39;;;;
2019/07/31 01:09:51;;;;;;;15.8;14.3;;;;;;;18.68;100;95219.39;;;;
2019/07/31 01:10:52;;;;;;;15.8;14.3;;;;;;;18.68;100;95219.39;;;;
2019/07/31 01:11:53;;;;;;;20.1;18.2;;;;;;;18.58;100;95238.23;;;;
2019/07/31 01:12:54;;;;;;;20.1;18.2;;;;;;;18.58;100;95238.23;;;;
2019/07/31 01:13:55;;;;;;;20.1;18.2;;;;;;;18.58;100;95238.23;;;;
2019/07/31 01:14:57;;;;;;;20.1;18.2;;;;;;;18.58;100;95238.23;;;;
2019/07/31 01:15:58;;;;;;;20.1;18.2;;;;;;;18.58;100;95238.23;;;;
2019/07/31 01:16:59;;;;;;;20.1;18.2;;;;;;;18.58;100;95238.23;;;;
2019/07/31 01:18:00;;;;;;;20.1;18.2;;;;;;;18.58;100;95238.23;;;;
2019/07/31 01:19:01;;;;;;;20.1;18.2;;;;;;;18.58;100;95238.23;;;;
2019/07/31 01:20:02;;;;;;;20.1;18.2;;;;;;;18.58;100;95238.23;;;;
2019/07/31 01:21:05;;;;;;;20.1;18.2;;;;;;;18.58;100;95238.23;;;;
2019/07/31 01:22:06;;;;;;;18.5;16.6;;;;;;;18.48;100;95235.15;;;;
2019/07/31 01:23:07;;;;;;;18.5;16.6;;;;;;;18.48;100;95235.15;;;;
2019/07/31 01:24:08;;;;;;;18.5;16.6;;;;;;;18.48;100;95235.15;;;;
2019/07/31 01:25:09;;;;;;;18.5;16.6;;;;;;;18.48;100;95235.15;;;;
2019/07/31 01:26:11;;;;;;;18.5;16.6;;;;;;;18.48;100;95235.15;;;;
2019/07/31 01:27:12;;;;;;;18.5;16.6;;;;;;;18.48;100;95235.15;;;;
2019/07/31 01:28:13;;;;;;;18.5;16.6;;;;;;;18.48;100;95235.15;;;;
2019/07/31 01:29:15;;;;;;;18.5;16.6;;;;;;;18.48;100;95235.15;;;;
2019/07/31 01:30:16;;;;;;;18.5;16.6;;;;;;;18.48;100;95235.15;;;;
2019/07/31 01:31:31;;;;;;;18.5;16.6;;;;;;;18.48;100;95235.15;;;;
2019/07/31 01:32:33;;;;;;;10.8;9.65;;;;;;;18.37;100;95247.11;;;;
2019/07/31 01:33:34;;;;;;;10.8;9.65;;;;;;;18.37;100;95247.11;;;;
2019/07/31 01:34:35;;;;;;;10.8;9.65;;;;;;;18.37;100;95247.11;;;;
2019/07/31 01:35:36;;;;;;;10.8;9.65;;;;;;;18.37;100;95247.11;;;;
2019/07/31 01:36:37;;;;;;;10.8;9.65;;;;;;;18.37;100;95247.11;;;;
2019/07/31 01:37:38;;;;;;;10.8;9.65;;;;;;;18.37;100;95247.11;;;;
2019/07/31 01:38:40;;;;;;;10.8;9.65;;;;;;;18.37;100;95247.11;;;;
2019/07/31 01:39:41;;;;;;;10.8;9.65;;;;;;;18.37;100;95247.11;;;;
2019/07/31 01:40:43;;;;;;;10.8;9.65;;;;;;;18.37;100;95247.11;;;;
2019/07/31 01:41:44;;;;;;;10.8;9.65;;;;;;;18.37;100;95247.11;;;;
2019/07/31 01:42:45;;;;;;;10.8;9.65;;;;;;;18.37;100;95247.11;;;;
2019/07/31 01:43:46;;;;;;;10.15;9.15;;;;;;;18.09;100;95253.87;;;;
2019/07/31 01:44:48;;;;;;;10.15;9.15;;;;;;;18.09;100;95253.87;;;;
2019/07/31 01:45:49;;;;;;;10.15;9.15;;;;;;;18.09;100;95253.87;;;;
2019/07/31 01:46:50;;;;;;;10.15;9.15;;;;;;;18.09;100;95253.87;;;;
2019/07/31 01:47:52;;;;;;;10.15;9.15;;;;;;;18.09;100;95253.87;;;;
2019/07/31 01:48:53;;;;;;;10.15;9.15;;;;;;;18.09;100;95253.87;;;;
2019/07/31 01:49:54;;;;;;;10.15;9.15;;;;;;;18.09;100;95253.87;;;;
2019/07/31 01:50:55;;;;;;;10.15;9.15;;;;;;;18.09;100;95253.87;;;;
2019/07/31 01:51:56;;;;;;;10.15;9.15;;;;;;;18.09;100;95253.87;;;;
2019/07/31 01:52:58;;;;;;;10.15;9.15;;;;;;;18.09;100;95253.87;;;;
2019/07/31 01:53:59;;;;;;;11.35;9.899999;;;;;;;17.86;100;95241.74;;;;
2019/07/31 01:55:01;;;;;;;11.35;9.899999;;;;;;;17.86;100;95241.74;;;;
2019/07/31 01:56:02;;;;;;;11.35;9.899999;;;;;;;17.86;100;95241.74;;;;
2019/07/31 01:57:03;;;;;;;11.35;9.899999;;;;;;;17.86;100;95241.74;;;;
2019/07/31 01:58:05;;;;;;;11.35;9.899999;;;;;;;17.86;100;95241.74;;;;
2019/07/31 01:59:06;;;;;;;11.35;9.899999;;;;;;;17.86;100;95241.74;;;;
2019/07/31 02:00:07;;;;;;;11.35;9.899999;;;;;;;17.86;100;95241.74;;;;
2019/07/31 02:01:09;;;;;;;11.35;9.899999;;;;;;;17.86;100;95241.74;;;;
2019/07/31 02:02:10;;;;;;;11.35;9.899999;;;;;;;17.86;100;95241.74;;;;
2019/07/31 02:03:12;;;;;;;11.35;9.899999;;;;;;;17.86;100;95241.74;;;;
2019/07/31 02:04:13;;;;;;;11.35;9.899999;;;;;;;17.86;100;95241.74;;;;
2019/07/31 02:05:14;;;;;;;12.55;8.650002;;;;;;;17.64;100;95254.41;;;;
2019/07/31 02:06:16;;;;;;;12.55;8.650002;;;;;;;17.64;100;95254.41;;;;
2019/07/31 02:07:17;;;;;;;12.55;8.650002;;;;;;;17.64;100;95254.41;;;;
2019/07/31 02:08:18;;;;;;;12.55;8.650002;;;;;;;17.64;100;95254.41;;;;
2019/07/31 02:09:20;;;;;;;12.55;8.650002;;;;;;;17.64;100;95254.41;;;;
2019/07/31 02:10:21;;;;;;;12.55;8.650002;;;;;;;17.64;100;95254.41;;;;
2019/07/31 02:11:22;;;;;;;12.55;8.650002;;;;;;;17.64;100;95254.41;;;;
2019/07/31 02:12:24;;;;;;;12.55;8.650002;;;;;;;17.64;100;95254.41;;;;
2019/07/31 02:13:25;;;;;;;12.55;8.650002;;;;;;;17.64;100;95254.41;;;;
2019/07/31 02:14:26;;;;;;;12.55;8.650002;;;;;;;17.64;100;95254.41;;;;
2019/07/31 02:15:27;;;;;;;12;8.000002;;;;;;;17.51;100;95259.23;;;;
2019/07/31 02:16:29;;;;;;;12;8.000002;;;;;;;17.51;100;95259.23;;;;
2019/07/31 02:17:30;;;;;;;12;8.000002;;;;;;;17.51;100;95259.23;;;;
2019/07/31 02:18:31;;;;;;;12;8.000002;;;;;;;17.51;100;95259.23;;;;
2019/07/31 02:19:32;;;;;;;12;8.000002;;;;;;;17.51;100;95259.23;;;;
2019/07/31 02:20:33;;;;;;;12;8.000002;;;;;;;17.51;100;95259.23;;;;
2019/07/31 02:21:35;;;;;;;12;8.000002;;;;;;;17.51;100;95259.23;;;;
2019/07/31 02:22:36;;;;;;;12;8.000002;;;;;;;17.51;100;95259.23;;;;
2019/07/31 02:23:37;;;;;;;12;8.000002;;;;;;;17.51;100;95259.23;;;;
2019/07/31 02:24:38;;;;;;;12;8.000002;;;;;;;17.51;100;95259.23;;;;
2019/07/31 02:25:39;;;;;;;8.9;8.000002;;;;;;;17.35;100;95266.22;;;;
2019/07/31 02:26:41;;;;;;;8.9;8.000002;;;;;;;17.35;100;95266.22;;;;
2019/07/31 02:27:42;;;;;;;8.9;8.000002;;;;;;;17.35;100;95266.22;;;;
2019/07/31 02:28:43;;;;;;;8.9;8.000002;;;;;;;17.35;100;95266.22;;;;
2019/07/31 02:29:44;;;;;;;8.9;8.000002;;;;;;;17.35;100;95266.22;;;;
2019/07/31 02:30:45;;;;;;;8.9;8.000002;;;;;;;17.35;100;95266.22;;;;
2019/07/31 02:32:06;;;;;;;8.9;8.000002;;;;;;;17.35;100;95266.22;;;;
2019/07/31 02:33:07;;;;;;;8.9;8.000002;;;;;;;17.35;100;95266.22;;;;
2019/07/31 02:34:08;;;;;;;8.9;8.000002;;;;;;;17.35;100;95266.22;;;;
2019/07/31 02:35:09;;;;;;;8.9;8.000002;;;;;;;17.35;100;95266.22;;;;
2019/07/31 02:36:11;;;;;;;15.55;8.000002;;;;;;;17.29;100;95265.95;;;;
2019/07/31 02:37:12;;;;;;;15.55;8.000002;;;;;;;17.29;100;95265.95;;;;
2019/07/31 02:38:13;;;;;;;15.55;8.000002;;;;;;;17.29;100;95265.95;;;;
2019/07/31 02:39:14;;;;;;;15.55;8.000002;;;;;;;17.29;100;95265.95;;;;
2019/07/31 02:40:15;;;;;;;15.55;8.000002;;;;;;;17.29;100;95265.95;;;;
2019/07/31 02:41:17;;;;;;;15.55;8.000002;;;;;;;17.29;100;95265.95;;;;
2019/07/31 02:42:18;;;;;;;15.55;8.000002;;;;;;;17.29;100;95265.95;;;;
2019/07/31 02:43:19;;;;;;;15.55;8.000002;;;;;;;17.29;100;95265.95;;;;
2019/07/31 02:44:20;;;;;;;15.55;8.000002;;;;;;;17.29;100;95265.95;;;;
2019/07/31 02:45:22;;;;;;;15.55;8.000002;;;;;;;17.29;100;95265.95;;;;
2019/07/31 02:46:23;;;;;;;15.55;8.000002;;;;;;;17.29;100;95265.95;;;;
2019/07/31 02:47:24;;;;;;;10.9;8.299998;;;;;;;17.19;100;95276.92;;;;
2019/07/31 02:48:25;;;;;;;10.9;8.299998;;;;;;;17.19;100;95276.92;;;;
2019/07/31 02:49:26;;;;;;;10.9;8.299998;;;;;;;17.19;100;95276.92;;;;
2019/07/31 02:50:27;;;;;;;10.9;8.299998;;;;;;;17.19;100;95276.92;;;;
2019/07/31 02:51:28;;;;;;;10.9;8.299998;;;;;;;17.19;100;95276.92;;;;
2019/07/31 02:52:29;;;;;;;10.9;8.299998;;;;;;;17.19;100;95276.92;;;;
2019/07/31 02:53:30;;;;;;;10.9;8.299998;;;;;;;17.19;100;95276.92;;;;
2019/07/31 02:54:32;;;;;;;10.9;8.299998;;;;;;;17.19;100;95276.92;;;;
2019/07/31 02:55:33;;;;;;;10.9;8.299998;;;;;;;17.19;100;95276.92;;;;
2019/07/31 02:56:34;;;;;;;10.9;8.299998;;;;;;;17.19;100;95276.92;;;;
2019/07/31 02:57:35;;;;;;;13.35;8.849999;;;;;;;17.13;100;95280.2;;;;
2019/07/31 02:58:36;;;;;;;13.35;8.849999;;;;;;;17.13;100;95280.2;;;;
2019/07/31 02:59:37;;;;;;;13.35;8.849999;;;;;;;17.13;100;95280.2;;;;
2019/07/31 03:00:38;;;;;;;13.35;8.849999;;;;;;;17.13;100;95280.2;;;;
2019/07/31 03:02:25;;;;;;;13.35;8.849999;;;;;;;17.13;100;95280.2;;;;
2019/07/31 03:03:26;;;;;;;13.35;8.849999;;;;;;;17.13;100;95280.2;;;;
2019/07/31 03:04:27;;;;;;;13.35;8.849999;;;;;;;17.13;100;95280.2;;;;
2019/07/31 03:05:28;;;;;;;13.35;8.849999;;;;;;;17.13;100;95280.2;;;;
2019/07/31 03:06:29;;;;;;;13.35;8.849999;;;;;;;17.13;100;95280.2;;;;
2019/07/31 03:07:31;;;;;;;13.35;8.849999;;;;;;;17.13;100;95280.2;;;;
2019/07/31 03:08:32;;;;;;;11.4;8.199999;;;;;;;17;100;95294.41;;;;
2019/07/31 03:09:33;;;;;;;11.4;8.199999;;;;;;;17;100;95294.41;;;;
2019/07/31 03:10:34;;;;;;;11.4;8.199999;;;;;;;17;100;95294.41;;;;
2019/07/31 03:11:35;;;;;;;11.4;8.199999;;;;;;;17;100;95294.41;;;;
2019/07/31 03:12:36;;;;;;;11.4;8.199999;;;;;;;17;100;95294.41;;;;
2019/07/31 03:13:37;;;;;;;11.4;8.199999;;;;;;;17;100;95294.41;;;;
2019/07/31 03:14:39;;;;;;;11.4;8.199999;;;;;;;17;100;95294.41;;;;
2019/07/31 03:15:40;;;;;;;11.4;8.199999;;;;;;;17;100;95294.41;;;;
2019/07/31 03:16:41;;;;;;;11.4;8.199999;;;;;;;17;100;95294.41;;;;
2019/07/31 03:17:42;;;;;;;11.4;8.199999;;;;;;;17;100;95294.41;;;;
2019/07/31 03:18:43;;;;;;;10.25;7.599999;;;;;;;16.95;100;95311.33;;;;
2019/07/31 03:19:44;;;;;;;10.25;7.599999;;;;;;;16.95;100;95311.33;;;;
2019/07/31 03:20:45;;;;;;;10.25;7.599999;;;;;;;16.95;100;95311.33;;;;
2019/07/31 03:21:46;;;;;;;10.25;7.599999;;;;;;;16.95;100;95311.33;;;;
2019/07/31 03:22:47;;;;;;;10.25;7.599999;;;;;;;16.95;100;95311.33;;;;
2019/07/31 03:23:49;;;;;;;10.25;7.599999;;;;;;;16.95;100;95311.33;;;;
2019/07/31 03:24:50;;;;;;;10.25;7.599999;;;;;;;16.95;100;95311.33;;;;
2019/07/31 03:25:51;;;;;;;10.25;7.599999;;;;;;;16.95;100;95311.33;;;;
2019/07/31 03:26:52;;;;;;;10.25;7.599999;;;;;;;16.95;100;95311.33;;;;
2019/07/31 03:27:53;;;;;;;10.25;7.599999;;;;;;;16.95;100;95311.33;;;;
2019/07/31 03:29:12;;;;;;;10.25;7.599999;;;;;;;16.95;100;95311.33;;;;
2019/07/31 03:35:21;;;;;;;9;7.05;;;;;;;16.83;100;95313.53;;;;
2019/07/31 03:36:22;;;;;;;9;7.05;;;;;;;16.83;100;95313.53;;;;
2019/07/31 03:37:24;;;;;;;9;7.05;;;;;;;16.83;100;95313.53;;;;
2019/07/31 03:38:25;;;;;;;9;7.05;;;;;;;16.83;100;95313.53;;;;
2019/07/31 03:39:26;;;;;;;9;7.05;;;;;;;16.83;100;95313.53;;;;
2019/07/31 03:40:27;;;;;;;10.9;6.95;;;;;;;16.77;100;95308.62;;;;
2019/07/31 03:41:28;;;;;;;10.9;6.95;;;;;;;16.77;100;95308.62;;;;
2019/07/31 03:42:29;;;;;;;10.9;6.95;;;;;;;16.77;100;95308.62;;;;
2019/07/31 03:43:30;;;;;;;10.9;6.95;;;;;;;16.77;100;95308.62;;;;
2019/07/31 03:44:31;;;;;;;10.9;6.95;;;;;;;16.77;100;95308.62;;;;
2019/07/31 03:45:32;;;;;;;10.9;6.95;;;;;;;16.77;100;95308.62;;;;
2019/07/31 03:46:33;;;;;;;10.9;6.95;;;;;;;16.77;100;95308.62;;;;
2019/07/31 03:47:34;;;;;;;10.9;6.95;;;;;;;16.77;100;95308.62;;;;
2019/07/31 03:48:36;;;;;;;10.9;6.95;;;;;;;16.77;100;95308.62;;;;
2019/07/31 03:49:37;;;;;;;10.9;6.95;;;;;;;16.77;100;95308.62;;;;
2019/07/31 03:50:38;;;;;;;11.85;8.100001;;;;;;;16.67;100;95319.01;;;;
2019/07/31 03:51:39;;;;;;;11.85;8.100001;;;;;;;16.67;100;95319.01;;;;
2019/07/31 03:52:40;;;;;;;11.85;8.100001;;;;;;;16.67;100;95319.01;;;;
2019/07/31 03:53:41;;;;;;;11.85;8.100001;;;;;;;16.67;100;95319.01;;;;
2019/07/31 03:54:42;;;;;;;11.85;8.100001;;;;;;;16.67;100;95319.01;;;;
2019/07/31 03:55:43;;;;;;;11.85;8.100001;;;;;;;16.67;100;95319.01;;;;
2019/07/31 03:56:44;;;;;;;11.85;8.100001;;;;;;;16.67;100;95319.01;;;;
2019/07/31 03:57:45;;;;;;;11.85;8.100001;;;;;;;16.67;100;95319.01;;;;
2019/07/31 03:58:46;;;;;;;11.85;8.100001;;;;;;;16.67;100;95319.01;;;;
2019/07/31 03:59:47;;;;;;;11.85;8.100001;;;;;;;16.67;100;95319.01;;;;
2019/07/31 04:00:49;;;;;;;11.85;8.100001;;;;;;;16.67;100;95319.01;;;;
2019/07/31 04:01:55;;;;;;;10.2;8.699999;;;;;;;16.68;100;95326.08;;;;
2019/07/31 04:02:56;;;;;;;10.2;8.699999;;;;;;;16.68;100;95326.08;;;;
2019/07/31 04:03:57;;;;;;;10.2;8.699999;;;;;;;16.68;100;95326.08;;;;
2019/07/31 04:04:58;;;;;;;10.2;8.699999;;;;;;;16.68;100;95326.08;;;;
2019/07/31 04:06:00;;;;;;;10.2;8.699999;;;;;;;16.68;100;95326.08;;;;
2019/07/31 04:07:01;;;;;;;10.2;8.699999;;;;;;;16.68;100;95326.08;;;;
2019/07/31 04:08:02;;;;;;;10.2;8.699999;;;;;;;16.68;100;95326.08;;;;
2019/07/31 04:09:03;;;;;;;10.2;8.699999;;;;;;;16.68;100;95326.08;;;;
2019/07/31 04:10:05;;;;;;;10.2;8.699999;;;;;;;16.68;100;95326.08;;;;
2019/07/31 04:11:06;;;;;;;10.2;8.699999;;;;;;;16.68;100;95326.08;;;;
2019/07/31 04:12:08;;;;;;;10.1;9.000002;;;;;;;16.69;100;95327.86;;;;
2019/07/31 04:13:09;;;;;;;10.1;9.000002;;;;;;;16.69;100;95327.86;;;;
2019/07/31 04:14:10;;;;;;;10.1;9.000002;;;;;;;16.69;100;95327.86;;;;
2019/07/31 04:15:11;;;;;;;10.1;9.000002;;;;;;;16.69;100;95327.86;;;;
2019/07/31 04:16:17;;;;;;;10.1;9.000002;;;;;;;16.69;100;95327.86;;;;
2019/07/31 04:17:19;;;;;;;10.1;9.000002;;;;;;;16.69;100;95327.86;;;;
2019/07/31 04:18:20;;;;;;;10.1;9.000002;;;;;;;16.69;100;95327.86;;;;
2019/07/31 04:19:21;;;;;;;10.1;9.000002;;;;;;;16.69;100;95327.86;;;;
2019/07/31 04:20:23;;;;;;;10.1;9.000002;;;;;;;16.69;100;95327.86;;;;
2019/07/31 04:21:24;;;;;;;10.1;9.000002;;;;;;;16.69;100;95327.86;;;;
2019/07/31 04:22:26;;;;;;;10.2;8.55;;;;;;;16.78;100;95340.81;;;;
2019/07/31 04:23:27;;;;;;;10.2;8.55;;;;;;;16.78;100;95340.81;;;;
2019/07/31 04:24:28;;;;;;;10.2;8.55;;;;;;;16.78;100;95340.81;;;;
2019/07/31 04:25:29;;;;;;;10.2;8.55;;;;;;;16.78;100;95340.81;;;;
2019/07/31 04:26:31;;;;;;;10.2;8.55;;;;;;;16.78;100;95340.81;;;;
2019/07/31 04:27:32;;;;;;;10.2;8.55;;;;;;;16.78;100;95340.81;;;;
2019/07/31 04:28:33;;;;;;;10.2;8.55;;;;;;;16.78;100;95340.81;;;;
2019/07/31 04:29:34;;;;;;;10.2;8.55;;;;;;;16.78;100;95340.81;;;;
2019/07/31 04:30:35;;;;;;;10.2;8.55;;;;;;;16.78;100;95340.81;;;;
2019/07/31 04:31:36;;;;;;;10.2;8.55;;;;;;;16.78;100;95340.81;;;;
2019/07/31 04:32:38;;;;;;;10.2;8.55;;;;;;;16.78;100;95340.81;;;;
2019/07/31 04:33:39;;;;;;;10.35;8.700001;;;;;;;16.81;100;95339.72;;;;
2019/07/31 04:34:40;;;;;;;10.35;8.700001;;;;;;;16.81;100;95339.72;;;;
2019/07/31 04:35:41;;;;;;;10.35;8.700001;;;;;;;16.81;100;95339.72;;;;
2019/07/31 04:36:42;;;;;;;10.35;8.700001;;;;;;;16.81;100;95339.72;;;;
2019/07/31 04:37:44;;;;;;;10.35;8.700001;;;;;;;16.81;100;95339.72;;;;
2019/07/31 04:38:45;;;;;;;10.35;8.700001;;;;;;;16.81;100;95339.72;;;;
2019/07/31 04:39:46;;;;;;;10.35;8.700001;;;;;;;16.81;100;95339.72;;;;
2019/07/31 04:40:47;;;;;;;10.35;8.700001;;;;;;;16.81;100;95339.72;;;;
2019/07/31 04:41:48;;;;;;;10.35;8.700001;;;;;;;16.81;100;95339.72;;;;
2019/07/31 04:42:49;;;;;;;10.35;8.700001;;;;;;;16.81;100;95339.72;;;;
2019/07/31 04:43:51;;;;;;;10.4;8.549999;;;;;;;16.95;100;95348.03;;;;
2019/07/31 04:44:52;;;;;;;10.4;8.549999;;;;;;;16.95;100;95348.03;;;;
2019/07/31 04:45:53;;;;;;;10.4;8.549999;;;;;;;16.95;100;95348.03;;;;
2019/07/31 04:46:54;;;;;;;10.4;8.549999;;;;;;;16.95;100;95348.03;;;;
2019/07/31 04:47:55;;;;;;;10.4;8.549999;;;;;;;16.95;100;95348.03;;;;
2019/07/31 04:48:56;;;;;;;10.4;8.549999;;;;;;;16.95;100;95348.03;;;;
2019/07/31 04:49:57;;;;;;;10.4;8.549999;;;;;;;16.95;100;95348.03;;;;
2019/07/31 04:50:58;;;;;;;10.4;8.549999;;;;;;;16.95;100;95348.03;;;;
2019/07/31 04:51:59;;;;;;;10.4;8.549999;;;;;;;16.95;100;95348.03;;;;
2019/07/31 04:53:01;;;;;;;10.4;8.549999;;;;;;;16.95;100;95348.03;;;;
2019/07/31 04:54:02;;;;;;;9.75;7.95;;;;;;;17.04;100;95354.69;;;;
2019/07/31 04:55:03;;;;;;;9.75;7.95;;;;;;;17.04;100;95354.69;;;;
2019/07/31 04:56:05;;;;;;;9.75;7.95;;;;;;;17.04;100;95354.69;;;;
2019/07/31 04:57:06;;;;;;;9.75;7.95;;;;;;;17.04;100;95354.69;;;;
2019/07/31 04:58:07;;;;;;;9.75;7.95;;;;;;;17.04;100;95354.69;;;;
2019/07/31 04:59:08;;;;;;;9.75;7.95;;;;;;;17.04;100;95354.69;;;;
2019/07/31 05:00:09;;;;;;;9.75;7.95;;;;;;;17.04;100;95354.69;;;;
2019/07/31 05:01:10;;;;;;;9.75;7.95;;;;;;;17.04;100;95354.69;;;;
2019/07/31 05:02:12;;;;;;;9.75;7.95;;;;;;;17.04;100;95354.69;;;;
2019/07/31 05:03:13;;;;;;;9.75;7.95;;;;;;;17.04;100;95354.69;;;;
2019/07/31 05:04:14;;;;;;;9.75;7.95;;;;;;;17.04;100;95354.69;;;;
2019/07/31 05:05:15;;;;;;;10.5;8.349999;;;;;;;17.14;100;95354.71;;;;
2019/07/31 05:06:16;;;;;;;10.5;8.349999;;;;;;;17.14;100;95354.71;;;;
2019/07/31 05:07:17;;;;;;;10.5;8.349999;;;;;;;17.14;100;95354.71;;;;
2019/07/31 05:08:18;;;;;;;10.5;8.349999;;;;;;;17.14;100;95354.71;;;;
2019/07/31 05:09:19;;;;;;;10.5;8.349999;;;;;;;17.14;100;95354.71;;;;
2019/07/31 05:10:21;;;;;;;10.5;8.349999;;;;;;;17.14;100;95354.71;;;;
2019/07/31 05:11:22;;;;;;;10.5;8.349999;;;;;;;17.14;100;95354.71;;;;
2019/07/31 05:12:23;;;;;;;10.5;8.349999;;;;;;;17.14;100;95354.71;;;;
2019/07/31 05:13:24;;;;;;;10.5;8.349999;;;;;;;17.14;100;95354.71;;;;
2019/07/31 05:14:25;;;;;;;10.5;8.349999;;;;;;;17.14;100;95354.71;;;;
2019/07/31 05:15:26;;;;;;;18.95;7.900001;;;;;;;17.16;100;95359.75;;;;
2019/07/31 05:16:27;;;;;;;18.95;7.900001;;;;;;;17.16;100;95359.75;;;;
2019/07/31 05:17:28;;;;;;;18.95;7.900001;;;;;;;17.16;100;95359.75;;;;
2019/07/31 05:18:29;;;;;;;18.95;7.900001;;;;;;;17.16;100;95359.75;;;;
2019/07/31 05:19:30;;;;;;;18.95;7.900001;;;;;;;17.16;100;95359.75;;;;
2019/07/31 05:20:32;;;;;;;18.95;7.900001;;;;;;;17.16;100;95359.75;;;;
2019/07/31 05:21:39;;;;;;;18.95;7.900001;;;;;;;17.16;100;95359.75;;;;
2019/07/31 05:22:40;;;;;;;18.95;7.900001;;;;;;;17.16;100;95359.75;;;;
2019/07/31 05:23:42;;;;;;;18.95;7.900001;;;;;;;17.16;100;95359.75;;;;
2019/07/31 05:24:43;;;;;;;18.95;7.900001;;;;;;;17.16;100;95359.75;;;;
2019/07/31 05:25:44;;;;;;;18.95;7.900001;;;;;;;17.16;100;95359.75;;;;
2019/07/31 05:26:45;;;;;;;9.649999;7.55;;;;;;;17.25;100;95382.25;;;;
2019/07/31 05:27:46;;;;;;;9.649999;7.55;;;;;;;17.25;100;95382.25;;;;
2019/07/31 05:28:47;;;;;;;9.649999;7.55;;;;;;;17.25;100;95382.25;;;;
2019/07/31 05:29:48;;;;;;;9.649999;7.55;;;;;;;17.25;100;95382.25;;;;
2019/07/31 05:30:49;;;;;;;9.649999;7.55;;;;;;;17.25;100;95382.25;;;;
2019/07/31 05:31:51;;;;;;;9.649999;7.55;;;;;;;17.25;100;95382.25;;;;
2019/07/31 05:32:52;;;;;;;9.649999;7.55;;;;;;;17.25;100;95382.25;;;;
2019/07/31 05:33:53;;;;;;;9.649999;7.55;;;;;;;17.25;100;95382.25;;;;
2019/07/31 05:34:54;;;;;;;9.649999;7.55;;;;;;;17.25;100;95382.25;;;;
2019/07/31 05:35:55;;;;;;;9.649999;7.55;;;;;;;17.25;100;95382.25;;;;
2019/07/31 05:36:57;;;;;;;10.55;7.799999;;;;;;;17.29;100;95385.51;;;;
2019/07/31 05:37:58;;;;;;;10.55;7.799999;;;;;;;17.29;100;95385.51;;;;
2019/07/31 05:38:59;;;;;;;10.55;7.799999;;;;;;;17.29;100;95385.51;;;;
2019/07/31 05:40:00;;;;;;;10.55;7.799999;;;;;;;17.29;100;95385.51;;;;
2019/07/31 05:41:01;;;;;;;10.55;7.799999;;;;;;;17.29;100;95385.51;;;;
2019/07/31 05:42:02;;;;;;;10.55;7.799999;;;;;;;17.29;100;95385.51;;;;
2019/07/31 05:43:03;;;;;;;10.55;7.799999;;;;;;;17.29;100;95385.51;;;;
2019/07/31 05:44:04;;;;;;;10.55;7.799999;;;;;;;17.29;100;95385.51;;;;
2019/07/31 05:45:05;;;;;;;10.55;7.799999;;;;;;;17.29;100;95385.51;;;;
2019/07/31 05:46:07;;;;;;;10.55;7.799999;;;;;;;17.29;100;95385.51;;;;
2019/07/31 05:47:08;;;;;;;9.4;7.55;;;;;;;17.38;100;95371.58;;;;
2019/07/31 05:48:09;;;;;;;9.4;7.55;;;;;;;17.38;100;95371.58;;;;
2019/07/31 05:49:10;;;;;;;9.4;7.55;;;;;;;17.38;100;95371.58;;;;
2019/07/31 05:50:11;;;;;;;9.4;7.55;;;;;;;17.38;100;95371.58;;;;
2019/07/31 05:51:13;;;;;;;9.4;7.55;;;;;;;17.38;100;95371.58;;;;
2019/07/31 05:52:14;;;;;;;9.4;7.55;;;;;;;17.38;100;95371.58;;;;
2019/07/31 05:53:15;;;;;;;9.4;7.55;;;;;;;17.38;100;95371.58;;;;
2019/07/31 05:54:16;;;;;;;9.4;7.55;;;;;;;17.38;100;95371.58;;;;
2019/07/31 05:55:17;;;;;;;9.4;7.55;;;;;;;17.38;100;95371.58;;;;
2019/07/31 05:56:38;;;;;;;9.4;7.55;;;;;;;17.38;100;95371.58;;;;
2019/07/31 05:57:39;;;;;;;9.4;7.55;;;;;;;17.38;100;95371.58;;;;
2019/07/31 05:58:40;;;;;;;11.55;8.600001;;;;;;;17.46;100;95380.58;;;;
2019/07/31 05:59:41;;;;;;;11.55;8.600001;;;;;;;17.46;100;95380.58;;;;
2019/07/31 06:00:42;;;;;;;11.55;8.600001;;;;;;;17.46;100;95380.58;;;;
2019/07/31 06:01:44;;;;;;;11.55;8.600001;;;;;;;17.46;100;95380.58;;;;
2019/07/31 06:02:45;;;;;;;11.55;8.600001;;;;;;;17.46;100;95380.58;;;;
2019/07/31 06:03:46;;;;;;;11.55;8.600001;;;;;;;17.46;100;95380.58;;;;
2019/07/31 06:04:47;;;;;;;11.55;8.600001;;;;;;;17.46;100;95380.58;;;;
2019/07/31 06:05:48;;;;;;;11.55;8.600001;;;;;;;17.46;100;95380.58;;;;
2019/07/31 06:06:49;;;;;;;11.55;8.600001;;;;;;;17.46;100;95380.58;;;;
2019/07/31 06:07:50;;;;;;;11.55;8.600001;;;;;;;17.46;100;95380.58;;;;